Southbridge, MA (01550)

5:07 AM EST on January 18, 2017 (GMT -0500)
Dennison Hill | | Change Station
Active Advisory: Winter Weather Advisory Active Notice: Public Information Statement

Elev 784 ft 42.06 °N, 72.06 °W | Updated 8 seconds ago

Rain
Rain
34.0 °F
Feels Like 34 °F
N
0.0
Wind Variable Wind from NNE
Gusts 0.0 mph

Today
High -- | Low -- °F
--% Chance of Precip.
Yesterday
High -- | Low -- °F
Precip. -- in
Pressure 29.94 in
Visibility 0.5 miles
Clouds
Windchill 34 °F
Dew Point Not available.
Humidity Not available.
Rainfall 0.11 in
Snow Depth Not available.
7:12 AM 4:45 PM
Waning Gibbous, 64% visible
SPECI KORH 180957Z AUTO 04008KT 1/2SM R11/P6000FT -SN FZFG VV002 M01/M01 A2994 RMK AO2 FZRAE56SNB56 P0000 I1000 T10061011
Pressure 29.94 in
Visibility 0.5 miles
Clouds
Windchill 34 °F
Dew Point Not available.
Humidity Not available.
Rainfall 0.11 in
Snow Depth Not available.
7:12 AM 4:45 PM
Waning Gibbous, 64% visible
SPECI KORH 180957Z AUTO 04008KT 1/2SM R11/P6000FT -SN FZFG VV002 M01/M01 A2994 RMK AO2 FZRAE56SNB56 P0000 I1000 T10061011

Get Your Daily Forecast Email!

Thanks for signing up!

Be on the lookout for a verification email in your inbox.

You'll start receiving the daily forecast at 8 AM.

×

10-Day Weather Forecast

Almanac

Astronomy

Jan. 18, 2017 Rise Set
Actual Time
Civil Twilight
Nautical Twilight
Astronomical Twilight
Moon
Length of Visible Light
Length of Day
Tomorrow will be .
, % of the Moon is Illuminated

Today's Extremes

State Highs State Lows

Community

WunderPhotos

Upload Photos

1,962,540 photos uploaded!

WunderBlog® & News

Nearby

Air Quality

  Air Quality AQ Index Pollutant
Not available.

Snow Depth

Station Depth Elevation

Earthquake Activity

City Distance Mag. Time & Date
Minimum magnitude displayed is 2.5.

Coastal Water Temperatures

Place Temperature

Stations

Nearby Weather Stations

Station Location Temp. Windchill Dew Point Humidity Wind Precip. Elev Updated Type
                   

Watches & Warnings

Winter Weather Advisory
Issued: 3:59 AM EST Jan. 18, 2017 – National Weather Service

... Winter Weather Advisory until 7 am EST this morning...

* locations... include western and central Massachusetts...
including the Metro areas of Springfield and Worcester.

* Hazard types... include snow... sleet... and freezing rain.

* Accumulations... up to an inch of snow along with around a trace
of ice.

* Timing... till 7 am this morning.

* Impacts... wintry precipitation will likely result in hazardous
travel conditions on untreated roads... especially bridges...
and overpasses. Parking lots and sidewalks will become
slippery as well.

Precautionary/preparedness actions...

A Winter Weather Advisory means that periods of snow... sleet... or
freezing rain will cause travel difficulties. Be prepared for
slippery roads and limited visibilities... and use caution while
driving.